createdAt,value
2023-02-02T00:21:03.332Z,616.00
2023-02-02T00:22:03.474Z,612.00
2023-02-02T00:23:03.342Z,610.00
2023-02-02T00:24:03.424Z,608.00
2023-02-02T00:25:03.429Z,607.00
2023-02-02T00:26:03.476Z,609.00
2023-02-02T00:27:03.495Z,610.00
2023-02-02T00:28:03.558Z,612.00
2023-02-02T00:29:03.535Z,613.00
2023-02-02T00:30:03.583Z,613.00
2023-02-02T00:31:03.654Z,613.00
2023-02-02T00:32:03.608Z,614.00
2023-02-02T00:33:03.678Z,616.00
2023-02-02T00:34:03.687Z,615.00
2023-02-02T00:35:03.714Z,613.00
2023-02-02T00:36:03.755Z,613.00
2023-02-02T00:37:03.768Z,614.00
2023-02-02T00:38:03.786Z,614.00
2023-02-02T00:39:03.825Z,613.00
2023-02-02T00:40:03.861Z,612.00
2023-02-02T00:41:03.869Z,612.00
2023-02-02T00:42:03.921Z,613.00
2023-02-02T00:43:03.943Z,614.00
2023-02-02T00:44:03.993Z,614.00
2023-02-02T00:45:04.022Z,613.00
2023-02-02T00:46:04.051Z,612.00
2023-02-02T00:47:04.030Z,612.00
2023-02-02T00:48:04.104Z,609.00
2023-02-02T00:49:04.123Z,607.00
2023-02-02T00:50:04.163Z,606.00
2023-02-02T00:51:04.183Z,607.00
2023-02-02T00:52:04.237Z,605.00
2023-02-02T00:53:04.261Z,605.00
2023-02-02T00:54:04.284Z,604.00
2023-02-02T00:55:04.303Z,603.00
2023-02-02T00:56:04.380Z,604.00
2023-02-02T00:57:04.404Z,606.00
2023-02-02T00:58:04.415Z,609.00
2023-02-02T00:59:04.442Z,610.00
2023-02-02T01:00:04.484Z,609.00
2023-02-02T01:01:04.573Z,610.00
2023-02-02T01:02:04.537Z,606.00
2023-02-02T01:03:04.664Z,603.00
2023-02-02T01:04:04.604Z,604.00
2023-02-02T01:05:04.637Z,604.00
2023-02-02T01:06:04.645Z,604.00
2023-02-02T01:07:04.701Z,604.00
2023-02-02T01:08:04.690Z,603.00
2023-02-02T01:09:04.720Z,602.00
2023-02-02T01:10:04.776Z,606.00
2023-02-02T01:11:04.777Z,605.00
2023-02-02T01:12:04.837Z,605.00
2023-02-02T01:13:04.899Z,604.00
2023-02-02T01:14:04.896Z,604.00
2023-02-02T01:15:04.878Z,603.00
2023-02-02T01:16:04.982Z,604.00
2023-02-02T01:17:04.972Z,603.00
2023-02-02T01:18:05.009Z,602.00
2023-02-02T01:19:05.032Z,601.00
2023-02-02T01:20:05.043Z,600.00
2023-02-02T01:21:05.083Z,598.00
2023-02-02T01:22:05.096Z,596.00
2023-02-02T01:23:05.159Z,597.00
2023-02-02T01:24:05.164Z,597.00
2023-02-02T01:25:05.210Z,596.00
2023-02-02T01:26:05.197Z,594.00
2023-02-02T01:27:05.232Z,595.00
2023-02-02T01:28:05.254Z,593.00
2023-02-02T01:29:05.311Z,592.00
2023-02-02T01:30:05.317Z,593.00
2023-02-02T01:31:05.410Z,595.00
2023-02-02T01:32:05.480Z,597.00
2023-02-02T01:33:05.441Z,595.00
2023-02-02T01:34:05.458Z,595.00
2023-02-02T01:35:05.448Z,596.00
2023-02-02T01:36:05.503Z,600.00
2023-02-02T01:37:05.535Z,599.00
2023-02-02T01:38:05.581Z,598.00
2023-02-02T01:39:05.562Z,598.00
2023-02-02T01:40:05.600Z,595.00
2023-02-02T01:41:05.646Z,595.00
2023-02-02T01:42:05.653Z,594.00
2023-02-02T01:43:05.706Z,593.00
2023-02-02T01:44:05.719Z,591.00
2023-02-02T06:01:12.775Z,558.00
2023-02-02T06:03:12.910Z,556.00
2023-02-02T06:04:12.862Z,555.00
2023-02-02T06:05:12.745Z,554.00
2023-02-02T06:06:12.756Z,555.00
2023-02-02T06:07:12.748Z,556.00
2023-02-02T06:08:12.776Z,559.00
2023-02-02T06:09:12.732Z,558.00
2023-02-02T06:10:12.749Z,557.00
2023-02-02T06:11:12.752Z,560.00
2023-02-02T06:12:12.758Z,560.00
2023-02-02T06:13:12.773Z,560.00
2023-02-02T06:14:12.689Z,559.00
2023-02-02T06:15:12.702Z,558.00
2023-02-02T06:16:12.794Z,558.00
2023-02-02T06:17:12.676Z,555.00
2023-02-02T06:18:12.709Z,555.00
2023-02-02T06:19:12.710Z,556.00
2023-02-02T06:20:12.726Z,554.00
2023-02-02T06:21:12.649Z,554.00
2023-02-02T06:22:12.663Z,553.00
2023-02-02T06:23:12.684Z,553.00
2023-02-02T06:24:12.642Z,556.00
2023-02-02T06:33:13.358Z,552.00
2023-02-02T06:43:12.627Z,623.00
2023-02-02T06:44:12.881Z,631.00
2023-02-02T06:46:19.722Z,636.00
2023-02-02T07:13:12.609Z,898.00
2023-02-02T07:24:12.516Z,928.00
2023-02-02T07:25:12.612Z,901.00
2023-02-02T07:26:12.575Z,805.00
2023-02-02T07:27:12.636Z,801.00
2023-02-02T07:28:12.673Z,787.00
2023-02-02T07:29:12.931Z,768.00
2023-02-02T07:45:24.618Z,899.00
2023-02-02T07:46:14.201Z,904.00
2023-02-02T07:57:13.331Z,925.00
2023-02-02T07:58:13.328Z,928.00
2023-02-02T07:59:13.377Z,928.00
2023-02-02T08:00:13.955Z,929.00
2023-02-02T08:01:13.505Z,934.00
2023-02-02T08:02:13.519Z,938.00
2023-02-02T08:03:13.613Z,939.00
2023-02-02T08:04:13.562Z,942.00
2023-02-02T08:05:13.616Z,947.00
2023-02-02T08:06:13.696Z,949.00
2023-02-02T08:07:15.063Z,949.00
2023-02-02T08:08:13.686Z,947.00
2023-02-02T08:09:13.688Z,950.00
2023-02-02T08:11:13.749Z,949.00
2023-02-02T08:12:13.757Z,949.00
2023-02-02T08:13:13.769Z,949.00
2023-02-02T08:14:13.834Z,946.00
2023-02-02T08:15:13.853Z,949.00
2023-02-02T08:16:13.933Z,953.00
2023-02-02T08:17:13.881Z,953.00
2023-02-02T08:18:13.856Z,954.00
2023-02-02T08:19:13.897Z,955.00
2023-02-02T08:20:13.902Z,950.00
2023-02-02T08:21:13.922Z,949.00
2023-02-02T08:22:13.905Z,944.00
2023-02-02T08:23:13.961Z,942.00
2023-02-02T08:24:13.970Z,945.00
2023-02-02T08:26:14.009Z,943.00
2023-02-02T08:28:14.094Z,939.00
2023-02-02T08:29:14.268Z,944.00
2023-02-02T08:31:14.245Z,950.00
2023-02-02T09:29:15.736Z,1047.00
2023-02-02T10:08:25.964Z,590.00
2023-02-02T10:09:18.043Z,609.00
2023-02-02T10:10:17.841Z,605.00
2023-02-02T10:11:17.471Z,598.00
2023-02-02T10:12:17.065Z,580.00
2023-02-02T10:13:17.034Z,570.00
2023-02-02T10:14:17.037Z,580.00
2023-02-02T10:15:17.043Z,588.00
2023-02-02T10:16:17.179Z,584.00
2023-02-02T10:17:17.194Z,580.00
2023-02-02T10:18:16.989Z,578.00
2023-02-02T10:19:16.985Z,583.00
2023-02-02T10:20:17.079Z,618.00
2023-02-02T10:21:17.024Z,632.00
2023-02-02T10:22:16.976Z,631.00
2023-02-02T10:23:17.005Z,621.00
2023-02-02T10:24:17.032Z,622.00
2023-02-02T10:25:17.142Z,629.00
2023-02-02T10:26:17.190Z,641.00
2023-02-02T10:27:17.199Z,665.00
2023-02-02T10:28:17.139Z,673.00
2023-02-02T10:29:17.124Z,668.00
2023-02-02T10:30:17.137Z,661.00
2023-02-02T10:31:17.335Z,661.00
2023-02-02T10:32:17.130Z,664.00
2023-02-02T10:33:17.176Z,666.00
2023-02-02T10:34:17.255Z,669.00
2023-02-02T10:35:17.313Z,677.00
2023-02-02T10:36:17.311Z,676.00
2023-02-02T10:37:17.377Z,677.00
2023-02-02T10:45:17.646Z,917.00
2023-02-02T10:46:17.716Z,916.00
2023-02-02T10:47:17.749Z,927.00
2023-02-02T10:48:17.800Z,950.00
2023-02-02T10:51:17.935Z,990.00
2023-02-02T10:53:18.051Z,984.00
2023-02-02T10:54:18.065Z,996.00
2023-02-02T10:55:18.043Z,979.00
2023-02-02T11:12:18.841Z,836.00
2023-02-02T13:22:23.556Z,1325.00
2023-02-02T13:26:23.510Z,1310.00
2023-02-02T13:27:23.504Z,1305.00
2023-02-02T13:28:23.437Z,1301.00
2023-02-02T13:29:23.514Z,1286.00
2023-02-02T13:30:23.622Z,1280.00
2023-02-02T13:31:23.743Z,1280.00
2023-02-02T13:32:23.798Z,1088.00
2023-02-02T13:33:23.745Z,1051.00
2023-02-02T13:58:24.783Z,1052.00
2023-02-02T14:07:25.343Z,1049.00
2023-02-02T14:15:26.110Z,1039.00
2023-02-02T15:36:30.209Z,884.00
2023-02-02T15:37:30.281Z,881.00
2023-02-02T15:38:30.364Z,876.00
2023-02-02T15:39:30.421Z,870.00
2023-02-02T15:40:30.440Z,870.00
2023-02-02T15:41:30.545Z,872.00
2023-02-02T15:42:30.581Z,872.00
2023-02-02T15:43:30.668Z,873.00
2023-02-02T15:44:30.717Z,872.00
2023-02-02T15:45:31.258Z,870.00
2023-02-02T15:46:30.816Z,868.00
2023-02-02T15:47:30.895Z,867.00
2023-02-02T15:48:30.962Z,866.00
2023-02-02T15:49:34.630Z,862.00
2023-02-02T15:50:30.948Z,863.00
2023-02-02T15:51:30.965Z,861.00
2023-02-02T15:52:30.969Z,860.00
2023-02-02T15:53:30.942Z,860.00
2023-02-02T15:54:30.942Z,860.00
2023-02-02T15:55:30.940Z,860.00
2023-02-02T15:56:30.954Z,857.00
2023-02-02T15:57:30.897Z,855.00
2023-02-02T15:58:30.911Z,855.00
2023-02-02T15:59:30.934Z,856.00
2023-02-02T16:00:31.025Z,855.00
2023-02-02T16:01:30.863Z,852.00
2023-02-02T16:02:30.890Z,848.00
2023-02-02T16:03:30.910Z,844.00
2023-02-02T16:04:30.961Z,841.00
2023-02-02T16:05:30.852Z,843.00
2023-02-02T16:06:30.861Z,843.00
2023-02-02T16:07:30.884Z,845.00
2023-02-02T16:08:30.879Z,844.00
2023-02-02T16:09:30.836Z,842.00
2023-02-02T16:10:30.848Z,839.00
2023-02-02T16:11:30.823Z,835.00
2023-02-02T16:12:30.809Z,833.00
2023-02-02T16:13:30.819Z,832.00
2023-02-02T16:14:30.813Z,831.00
2023-02-02T16:15:30.857Z,833.00
2023-02-02T16:16:30.922Z,832.00
2023-02-02T16:17:30.908Z,830.00
2023-02-02T16:18:30.940Z,827.00
2023-02-02T16:19:30.988Z,826.00
2023-02-02T16:20:31.048Z,827.00
2023-02-02T16:21:31.635Z,827.00
2023-02-02T16:22:31.106Z,822.00
2023-02-02T16:23:31.101Z,821.00
2023-02-02T16:24:31.116Z,819.00
2023-02-02T16:25:31.200Z,820.00
2023-02-02T16:26:31.297Z,817.00
2023-02-02T16:27:31.242Z,815.00
2023-02-02T16:28:31.347Z,815.00
2023-02-02T16:29:31.350Z,815.00
2023-02-02T16:30:31.463Z,814.00
2023-02-02T16:31:31.536Z,810.00
2023-02-02T16:32:31.478Z,809.00
2023-02-02T16:33:31.593Z,807.00
2023-02-02T16:34:31.539Z,802.00
2023-02-02T16:35:31.627Z,804.00
2023-02-02T16:36:31.676Z,803.00
2023-02-02T16:37:31.718Z,805.00
2023-02-02T16:38:31.766Z,804.00
2023-02-02T16:39:31.755Z,803.00
2023-02-02T16:40:31.792Z,800.00
2023-02-02T16:41:31.835Z,798.00
2023-02-02T16:42:31.839Z,794.00
2023-02-02T16:43:31.925Z,793.00
2023-02-02T16:44:31.922Z,792.00
2023-02-02T16:45:33.947Z,792.00
2023-02-02T16:46:31.968Z,792.00
2023-02-02T16:47:32.050Z,790.00
2023-02-02T16:48:32.056Z,790.00
2023-02-02T16:49:32.110Z,787.00
2023-02-02T16:50:32.128Z,788.00
2023-02-02T16:51:33.906Z,785.00
2023-02-02T16:52:32.231Z,785.00
2023-02-02T16:53:32.219Z,780.00
2023-02-02T16:54:32.257Z,775.00
2023-02-02T16:55:47.801Z,774.00
2023-02-02T16:56:33.252Z,770.00
2023-02-02T16:57:34.163Z,771.00
2023-02-02T16:58:32.225Z,770.00
2023-02-02T16:59:32.225Z,767.00
2023-02-02T17:00:32.232Z,771.00
2023-02-02T17:01:32.248Z,774.00
2023-02-02T17:02:32.382Z,777.00
2023-02-02T17:03:32.253Z,778.00
2023-02-02T17:04:32.226Z,778.00
2023-02-02T17:05:32.267Z,776.00
2023-02-02T17:06:45.734Z,778.00
2023-02-02T17:07:33.355Z,778.00
2023-02-02T17:08:32.242Z,778.00
2023-02-02T17:09:34.832Z,775.00
2023-02-02T17:10:32.235Z,774.00
2023-02-02T17:11:32.194Z,771.00
2023-02-02T17:12:34.240Z,770.00
2023-02-02T17:13:32.310Z,769.00
2023-02-02T17:14:32.322Z,768.00
2023-02-02T17:15:34.625Z,766.00
2023-02-02T17:16:32.545Z,764.00
2023-02-02T17:17:32.570Z,763.00
2023-02-02T17:18:32.557Z,761.00
2023-02-02T17:19:32.518Z,759.00
2023-02-02T17:20:32.591Z,760.00
2023-02-02T17:21:33.889Z,760.00
2023-02-02T17:22:32.547Z,762.00
2023-02-02T17:23:32.609Z,759.00
2023-02-02T17:24:32.554Z,760.00
2023-02-02T17:25:32.587Z,759.00
2023-02-02T17:26:32.552Z,761.00
2023-02-02T17:27:34.039Z,760.00
2023-02-02T17:28:32.584Z,756.00
2023-02-02T17:29:32.542Z,754.00
2023-02-02T17:30:32.562Z,754.00
2023-02-02T17:31:32.590Z,749.00
2023-02-02T17:32:32.538Z,750.00
2023-02-02T17:33:34.123Z,751.00
2023-02-02T17:34:32.587Z,751.00
2023-02-02T17:35:47.312Z,752.00
2023-02-02T17:36:33.574Z,753.00
2023-02-02T17:37:32.518Z,752.00
2023-02-02T17:38:32.532Z,754.00
2023-02-02T17:39:32.522Z,755.00
2023-02-02T17:40:32.499Z,758.00
2023-02-02T17:41:32.509Z,758.00
2023-02-02T17:42:32.520Z,757.00
2023-02-02T17:43:32.541Z,757.00
2023-02-02T17:44:32.482Z,753.00
2023-02-02T17:45:34.104Z,751.00
2023-02-02T17:46:32.568Z,752.00
2023-02-02T17:47:32.441Z,747.00
2023-02-02T17:48:32.467Z,746.00
2023-02-02T17:49:32.412Z,745.00
2023-02-02T17:50:32.427Z,744.00
2023-02-02T17:51:32.421Z,748.00
2023-02-02T17:52:32.433Z,745.00
2023-02-02T17:53:33.538Z,744.00
2023-02-02T17:54:32.381Z,746.00
2023-02-02T17:55:32.409Z,747.00
2023-02-02T17:56:32.416Z,743.00
2023-02-02T17:57:32.355Z,744.00
2023-02-02T17:58:32.380Z,742.00
2023-02-02T17:59:32.363Z,739.00
2023-02-02T18:00:32.420Z,740.00
2023-02-02T18:01:32.384Z,742.00
2023-02-02T18:02:32.359Z,741.00
2023-02-02T18:03:34.146Z,741.00
2023-02-02T18:04:32.337Z,740.00
2023-02-02T18:05:32.303Z,741.00
2023-02-02T18:06:32.326Z,740.00
2023-02-02T18:07:32.275Z,739.00
2023-02-02T18:08:32.314Z,740.00
2023-02-02T18:09:33.785Z,741.00
2023-02-02T18:10:32.287Z,739.00
2023-02-02T18:11:32.295Z,739.00
2023-02-02T18:12:32.318Z,740.00
2023-02-02T18:13:32.336Z,744.00
2023-02-02T18:14:32.319Z,745.00
2023-02-02T18:15:32.428Z,745.00
2023-02-02T18:16:32.352Z,743.00
2023-02-02T18:17:34.074Z,741.00
2023-02-02T18:18:32.371Z,741.00
2023-02-02T18:19:32.349Z,744.00
2023-02-02T18:20:32.378Z,741.00
2023-02-02T18:21:32.392Z,736.00
2023-02-02T18:22:32.392Z,739.00
2023-02-02T18:23:32.404Z,738.00
2023-02-02T18:24:32.415Z,739.00
2023-02-02T18:25:32.435Z,738.00
2023-02-02T18:26:32.492Z,737.00
2023-02-02T18:27:32.475Z,737.00
2023-02-02T18:28:32.554Z,735.00
2023-02-02T18:29:32.508Z,736.00
2023-02-02T18:30:32.514Z,736.00
2023-02-02T18:31:32.683Z,735.00
2023-02-02T18:32:32.572Z,734.00
2023-02-02T18:33:32.684Z,735.00
2023-02-02T18:34:32.551Z,736.00
2023-02-02T18:35:32.613Z,737.00
2023-02-02T18:36:32.605Z,736.00
2023-02-02T18:37:32.617Z,736.00
2023-02-02T18:38:32.625Z,736.00
2023-02-02T18:39:32.655Z,735.00
2023-02-02T18:40:32.648Z,734.00
2023-02-02T18:41:32.702Z,734.00
2023-02-02T18:42:32.706Z,734.00
2023-02-02T18:43:32.721Z,733.00
2023-02-02T18:44:32.759Z,732.00
2023-02-02T18:45:32.758Z,733.00
2023-02-02T18:46:32.934Z,733.00
2023-02-02T18:47:32.825Z,731.00
2023-02-02T18:48:32.829Z,734.00
2023-02-02T18:49:32.859Z,733.00
2023-02-02T18:50:32.829Z,730.00
2023-02-02T18:51:32.843Z,731.00
2023-02-02T19:02:33.002Z,739.00
2023-02-02T19:03:32.984Z,739.00
2023-02-02T19:04:32.978Z,738.00
2023-02-02T19:05:32.966Z,738.00
2023-02-02T19:06:32.978Z,738.00
2023-02-02T19:07:32.972Z,737.00
2023-02-02T19:08:33.938Z,734.00
2023-02-02T19:09:32.990Z,732.00
2023-02-02T19:10:33.029Z,732.00
2023-02-02T19:11:33.060Z,730.00
2023-02-02T19:12:33.046Z,729.00
2023-02-02T19:13:33.043Z,726.00
2023-02-02T19:14:33.136Z,725.00
2023-02-02T19:15:33.096Z,725.00
2023-02-02T19:16:33.101Z,725.00
2023-02-02T19:17:33.120Z,726.00
2023-02-02T19:18:33.136Z,725.00
2023-02-02T19:19:33.163Z,726.00
2023-02-02T19:20:33.164Z,727.00
2023-02-02T19:21:33.170Z,728.00
2023-02-02T19:22:33.181Z,727.00
2023-02-02T19:23:33.241Z,724.00
2023-02-02T19:24:33.221Z,723.00
2023-02-02T19:25:33.206Z,725.00
2023-02-02T19:26:33.290Z,724.00
2023-02-02T19:27:33.211Z,722.00
2023-02-02T19:28:33.270Z,721.00
2023-02-02T19:29:33.273Z,722.00
2023-02-02T19:30:33.309Z,723.00
2023-02-02T19:31:33.294Z,721.00
2023-02-02T19:32:33.322Z,722.00
2023-02-02T19:33:33.299Z,720.00
2023-02-02T19:34:33.315Z,721.00
2023-02-02T19:35:33.316Z,721.00
2023-02-02T19:36:33.323Z,723.00
2023-02-02T19:37:33.371Z,723.00
2023-02-02T19:38:33.352Z,723.00
2023-02-02T19:39:33.363Z,724.00
2023-02-02T19:40:33.404Z,725.00
2023-02-02T19:41:33.450Z,725.00
2023-02-02T19:42:33.443Z,727.00
2023-02-02T19:43:33.482Z,727.00
2023-02-02T19:44:33.484Z,726.00
2023-02-02T19:45:33.507Z,728.00
2023-02-02T19:46:33.541Z,727.00
2023-02-02T19:47:33.568Z,725.00
2023-02-02T19:48:33.566Z,726.00
2023-02-02T19:49:33.567Z,727.00
2023-02-02T19:50:33.635Z,726.00
2023-02-02T19:51:33.644Z,725.00
2023-02-02T19:52:33.644Z,726.00
2023-02-02T19:53:33.708Z,725.00
2023-02-02T19:54:33.715Z,724.00
2023-02-02T19:55:33.675Z,723.00
2023-02-02T19:56:33.709Z,724.00
2023-02-02T19:57:33.734Z,724.00
2023-02-02T19:58:33.776Z,724.00
2023-02-02T19:59:33.800Z,723.00
2023-02-02T20:00:33.854Z,722.00
2023-02-02T20:01:33.795Z,719.00
2023-02-02T20:02:33.843Z,721.00
2023-02-02T20:03:33.874Z,724.00
2023-02-02T20:04:33.887Z,727.00
2023-02-02T20:05:33.908Z,724.00
2023-02-02T20:06:33.921Z,725.00
2023-02-02T20:07:33.951Z,724.00
2023-02-02T20:08:33.964Z,722.00
2023-02-02T20:09:34.061Z,719.00
2023-02-02T20:10:34.020Z,720.00
2023-02-02T20:11:34.041Z,719.00
2023-02-02T20:12:34.090Z,719.00
2023-02-02T20:13:34.068Z,718.00
2023-02-02T20:14:34.116Z,718.00
2023-02-02T20:15:34.156Z,719.00
2023-02-02T20:16:34.214Z,719.00
2023-02-02T20:17:34.201Z,717.00
2023-02-02T20:18:34.189Z,717.00
2023-02-02T20:19:34.224Z,717.00
2023-02-02T20:20:34.222Z,716.00
2023-02-02T20:21:34.256Z,716.00
2023-02-02T20:22:34.312Z,717.00
2023-02-02T20:23:34.282Z,719.00
2023-02-02T20:24:34.328Z,718.00
2023-02-02T20:25:34.328Z,716.00
2023-02-02T20:26:34.490Z,717.00
2023-02-02T20:27:34.376Z,718.00
2023-02-02T20:28:34.390Z,717.00
2023-02-02T20:29:34.409Z,716.00
2023-02-02T20:30:34.438Z,716.00
2023-02-02T20:31:34.548Z,716.00
2023-02-02T20:32:34.487Z,716.00
2023-02-02T20:33:34.528Z,715.00
2023-02-02T20:34:34.534Z,714.00
2023-02-02T20:35:34.568Z,716.00
2023-02-02T20:36:34.583Z,715.00
2023-02-02T20:37:34.594Z,715.00
2023-02-02T20:38:34.633Z,714.00
2023-02-02T20:39:34.676Z,716.00
2023-02-02T20:40:34.679Z,717.00
2023-02-02T20:41:34.678Z,717.00
2023-02-02T20:42:34.739Z,716.00
2023-02-02T20:43:34.724Z,714.00
2023-02-02T20:44:34.732Z,711.00
2023-02-02T20:45:34.823Z,711.00
2023-02-02T20:46:34.806Z,708.00
2023-02-02T20:47:34.821Z,706.00
2023-02-02T20:48:34.837Z,706.00
2023-02-02T20:49:34.888Z,709.00
2023-02-02T20:50:34.907Z,714.00
2023-02-02T20:51:34.917Z,716.00
2023-02-02T20:52:34.934Z,713.00
2023-02-02T20:53:34.984Z,712.00
2023-02-02T20:54:34.973Z,715.00
2023-02-02T20:55:34.970Z,714.00
2023-02-02T20:56:34.992Z,712.00
2023-02-02T20:57:35.055Z,710.00
2023-02-02T20:58:35.074Z,710.00
2023-02-02T20:59:35.100Z,709.00
2023-02-02T21:00:35.116Z,709.00
2023-02-02T21:01:35.227Z,711.00
2023-02-02T21:02:35.168Z,713.00
2023-02-02T21:03:35.196Z,716.00
2023-02-02T21:04:35.210Z,716.00
2023-02-02T21:05:35.218Z,717.00
2023-02-02T21:06:35.248Z,718.00
2023-02-02T21:07:35.275Z,716.00
2023-02-02T21:08:35.345Z,715.00
2023-02-02T21:09:35.332Z,717.00
2023-02-02T21:10:35.377Z,714.00
2023-02-02T21:11:35.394Z,712.00
2023-02-02T21:12:35.410Z,710.00
2023-02-02T21:13:35.404Z,710.00
2023-02-02T21:14:35.429Z,709.00
2023-02-02T21:15:35.496Z,709.00
2023-02-02T21:16:35.540Z,707.00
2023-02-02T21:17:35.494Z,706.00
2023-02-02T21:18:35.553Z,708.00
2023-02-02T21:19:35.536Z,709.00
2023-02-02T21:20:35.549Z,709.00
2023-02-02T21:21:35.643Z,707.00
2023-02-02T21:22:35.580Z,704.00
2023-02-02T21:23:35.630Z,703.00
2023-02-02T21:24:35.675Z,703.00
2023-02-02T21:25:35.656Z,700.00
2023-02-02T21:26:35.699Z,699.00
2023-02-02T21:27:35.705Z,701.00
2023-02-02T21:28:35.787Z,702.00
2023-02-02T21:29:35.782Z,700.00
2023-02-02T21:30:35.887Z,699.00
2023-02-02T21:31:35.975Z,698.00
2023-02-02T21:32:35.854Z,703.00
2023-02-02T21:33:35.838Z,702.00
2023-02-02T21:34:35.866Z,702.00
2023-02-02T21:35:35.887Z,704.00
2023-02-02T21:36:35.898Z,703.00
2023-02-02T21:37:35.958Z,702.00
2023-02-02T21:38:35.935Z,700.00
2023-02-02T21:39:35.961Z,701.00
2023-02-02T21:40:35.956Z,701.00
2023-02-02T21:41:36.004Z,700.00
2023-02-02T21:42:36.011Z,700.00
2023-02-02T21:43:36.033Z,699.00
2023-02-02T21:44:36.093Z,698.00
2023-02-02T21:45:36.126Z,701.00
2023-02-02T21:46:36.188Z,699.00
2023-02-02T21:47:36.114Z,699.00
2023-02-02T21:48:36.182Z,702.00
2023-02-02T21:49:36.185Z,703.00
2023-02-02T21:50:36.179Z,702.00
2023-02-02T21:51:36.191Z,700.00
2023-02-02T21:52:36.758Z,702.00
2023-02-02T21:53:36.262Z,701.00
2023-02-02T21:54:36.304Z,702.00
2023-02-02T21:55:36.321Z,701.00
2023-02-02T21:56:36.305Z,701.00
2023-02-02T21:57:36.404Z,700.00
2023-02-02T21:58:36.395Z,700.00
2023-02-02T21:59:36.385Z,700.00
2023-02-02T22:00:36.400Z,700.00
2023-02-02T22:01:36.525Z,702.00
2023-02-02T22:02:36.550Z,703.00
2023-02-02T22:03:36.483Z,705.00
2023-02-02T22:04:36.532Z,704.00
2023-02-02T22:05:36.550Z,704.00
2023-02-02T22:06:36.555Z,702.00
2023-02-02T22:07:36.598Z,702.00
2023-02-02T22:08:36.585Z,699.00
2023-02-02T22:09:36.643Z,701.00
2023-02-02T22:10:36.694Z,700.00
2023-02-02T22:11:36.683Z,702.00
2023-02-02T22:12:36.700Z,701.00
2023-02-02T22:13:36.736Z,698.00
2023-02-02T22:14:36.745Z,698.00
2023-02-02T22:15:38.302Z,698.00
2023-02-02T22:16:36.831Z,698.00
2023-02-02T22:17:36.834Z,700.00
2023-02-02T22:18:36.849Z,698.00
2023-02-02T22:19:36.887Z,697.00
2023-02-02T22:20:36.904Z,698.00
2023-02-02T22:21:36.915Z,698.00
2023-02-02T22:22:36.938Z,697.00
2023-02-02T22:23:36.972Z,693.00
2023-02-02T22:24:37.006Z,693.00
2023-02-02T22:25:37.020Z,694.00
2023-02-02T22:26:37.095Z,693.00
2023-02-02T22:27:37.133Z,691.00
2023-02-02T22:28:37.105Z,694.00
2023-02-02T22:29:37.150Z,695.00
2023-02-02T22:30:37.233Z,695.00
2023-02-02T22:31:37.311Z,697.00
2023-02-02T22:32:37.224Z,695.00
2023-02-02T22:33:37.236Z,692.00
2023-02-02T22:34:37.260Z,690.00
2023-02-02T22:35:37.288Z,691.00
2023-02-02T22:36:37.292Z,693.00
2023-02-02T22:37:37.332Z,693.00
2023-02-02T22:38:37.370Z,696.00
2023-02-02T22:39:37.394Z,696.00
2023-02-02T22:40:37.381Z,695.00
2023-02-02T22:41:37.436Z,694.00
2023-02-02T22:42:37.444Z,693.00
2023-02-02T22:43:37.453Z,689.00
2023-02-02T22:44:37.474Z,689.00
2023-02-02T22:45:37.524Z,688.00
2023-02-02T22:46:37.673Z,690.00
2023-02-02T22:47:37.579Z,688.00
2023-02-02T22:48:37.566Z,689.00
2023-02-02T22:49:37.625Z,690.00
2023-02-02T22:50:37.659Z,690.00
2023-02-02T22:51:37.665Z,688.00
2023-02-02T22:52:37.710Z,685.00
2023-02-02T22:53:37.779Z,687.00
2023-02-02T22:54:37.765Z,686.00
2023-02-02T22:55:37.808Z,686.00
2023-02-02T22:56:37.856Z,684.00
2023-02-02T22:57:37.811Z,684.00
2023-02-02T22:58:37.858Z,685.00
2023-02-02T22:59:37.900Z,687.00
2023-02-02T23:00:37.937Z,686.00
2023-02-02T23:01:37.902Z,685.00
2023-02-02T23:02:37.953Z,686.00
2023-02-02T23:03:38.105Z,687.00
2023-02-02T23:04:38.016Z,687.00
2023-02-02T23:05:38.006Z,687.00
2023-02-02T23:06:38.066Z,689.00
2023-02-02T23:07:38.101Z,689.00
2023-02-02T23:08:38.104Z,690.00
2023-02-02T23:09:38.126Z,689.00
2023-02-02T23:10:38.131Z,687.00
2023-02-02T23:11:38.194Z,688.00
2023-02-02T23:12:38.211Z,684.00
2023-02-02T23:13:38.273Z,683.00
2023-02-02T23:14:38.282Z,684.00
2023-02-02T23:15:38.309Z,685.00
2023-02-02T23:16:38.361Z,689.00
2023-02-02T23:17:38.359Z,688.00
2023-02-02T23:18:38.359Z,686.00
2023-02-02T23:19:38.407Z,687.00
2023-02-02T23:20:38.409Z,688.00
2023-02-02T23:21:38.492Z,687.00
2023-02-02T23:22:38.538Z,688.00
2023-02-02T23:23:38.530Z,689.00
2023-02-02T23:24:38.536Z,687.00
2023-02-02T23:25:38.607Z,687.00
2023-02-02T23:26:38.580Z,683.00
2023-02-02T23:27:38.650Z,683.00
2023-02-02T23:28:38.636Z,683.00
2023-02-02T23:29:38.670Z,684.00
2023-02-02T23:30:38.782Z,689.00
2023-02-02T23:31:38.798Z,686.00
2023-02-02T23:32:38.797Z,687.00
2023-02-02T23:33:38.822Z,685.00
2023-02-02T23:34:38.871Z,684.00
2023-02-02T23:35:38.884Z,683.00
2023-02-02T23:36:38.879Z,680.00
2023-02-02T23:37:38.959Z,679.00
2023-02-02T23:38:38.944Z,679.00
2023-02-02T23:39:39.019Z,678.00
2023-02-02T23:40:39.031Z,675.00
2023-02-02T23:41:39.029Z,675.00
2023-02-02T23:42:39.074Z,675.00
2023-02-02T23:43:39.152Z,676.00
2023-02-02T23:44:39.154Z,676.00
2023-02-02T23:45:39.150Z,679.00
2023-02-02T23:46:39.270Z,678.00
2023-02-02T23:47:39.225Z,681.00
2023-02-02T23:48:39.271Z,679.00
2023-02-02T23:49:39.277Z,678.00
2023-02-02T23:50:39.334Z,679.00
2023-02-02T23:51:39.352Z,678.00
2023-02-02T23:52:39.421Z,682.00
2023-02-02T23:53:39.418Z,684.00
2023-02-02T23:54:39.424Z,684.00
2023-02-02T23:55:39.418Z,680.00
2023-02-02T23:56:39.437Z,677.00
2023-02-02T23:57:39.510Z,673.00
2023-02-02T23:58:39.557Z,675.00
2023-02-02T23:59:39.556Z,675.00
